Time;durP1;ratioP1;P1;durP2;ratioP2;P2;SDS_P1;SDS_P2;PMS_P1;PMS_P2;Temp;Humidity;BMP_temperature;BMP_pressure;BME280_temperature;BME280_humidity;BME280_pressure;Samples;Min_cycle;Max_cycle;Signal;HPM_P1;HPM_P2
2023/09/28 06:57:11;;;;;;;24.10;7.82;;;15.70;99.90;;;;;;6147283;22;94323;-96
2023/09/28 06:59:38;;;;;;;14.35;6.32;;;15.80;99.90;;;;;;6170097;22;92154;-94
2023/09/28 07:02:06;;;;;;;18.60;6.38;;;15.90;99.90;;;;;;6154626;22;95240;-96
2023/09/28 07:04:35;;;;;;;15.40;5.63;;;16.00;99.90;;;;;;6158588;22;93617;-96
2023/09/28 07:07:03;;;;;;;17.50;6.45;;;16.00;99.90;;;;;;6142045;22;91922;-96
2023/09/28 07:09:29;;;;;;;15.65;5.03;;;16.10;99.90;;;;;;6153825;22;92546;-96
2023/09/28 07:11:55;;;;;;;16.52;5.50;;;16.20;99.90;;;;;;6151236;22;94686;-96
2023/09/28 07:14:21;;;;;;;14.63;5.07;;;16.30;99.90;;;;;;6144601;22;93689;-96
2023/09/28 07:16:47;;;;;;;14.45;4.30;;;16.40;99.90;;;;;;6154583;22;92395;-96
2023/09/28 07:19:13;;;;;;;14.35;4.65;;;16.50;99.90;;;;;;6145699;22;92936;-95
2023/09/28 07:21:38;;;;;;;11.75;4.45;;;16.60;99.90;;;;;;6148026;22;94530;-94
2023/09/28 07:24:07;;;;;;;13.80;4.72;;;16.70;99.90;;;;;;6145628;22;94477;-96
2023/09/28 07:26:33;;;;;;;20.92;4.78;;;16.80;99.90;;;;;;6144674;22;92182;-96
2023/09/28 07:28:59;;;;;;;18.48;5.93;;;16.90;99.90;;;;;;6145798;22;92174;-95
2023/09/28 07:31:25;;;;;;;17.45;5.05;;;17.00;99.90;;;;;;6148926;22;93592;-96
2023/09/28 07:33:51;;;;;;;18.70;4.55;;;17.10;99.90;;;;;;6147196;22;94830;-94
2023/09/28 07:36:18;;;;;;;18.92;4.35;;;17.20;99.90;;;;;;6147815;22;92588;-96
2023/09/28 07:38:47;;;;;;;18.88;4.10;;;17.30;99.90;;;;;;6146960;22;93364;-94
2023/09/28 07:41:12;;;;;;;17.35;3.72;;;17.40;99.90;;;;;;6143518;22;94450;-96
2023/09/28 07:43:38;;;;;;;13.75;3.45;;;17.50;99.90;;;;;;6145614;22;95390;-94
2023/09/28 07:46:04;;;;;;;12.90;3.35;;;17.60;99.90;;;;;;6149512;22;92568;-96
2023/09/28 07:48:29;;;;;;;16.75;3.20;;;17.70;99.90;;;;;;6149061;22;92469;-95
2023/09/28 07:50:56;;;;;;;28.25;3.63;;;17.70;99.90;;;;;;6142470;22;95264;-96
2023/09/28 07:53:22;;;;;;;23.88;4.30;;;17.80;99.90;;;;;;6153875;22;95265;-96
2023/09/28 07:55:51;;;;;;;18.63;3.30;;;17.90;99.90;;;;;;6149122;22;92095;-96
2023/09/28 07:58:17;;;;;;;16.05;3.20;;;18.00;99.90;;;;;;6151631;22;92948;-95
2023/09/28 08:00:45;;;;;;;24.25;3.83;;;18.00;99.90;;;;;;6156076;22;98361;-96
2023/09/28 08:03:10;;;;;;;17.90;4.03;;;18.00;99.90;;;;;;6152510;22;94021;-96
2023/09/28 08:05:36;;;;;;;18.48;2.90;;;18.10;99.90;;;;;;6154214;22;92214;-96
2023/09/28 08:08:05;;;;;;;20.08;3.60;;;18.10;99.90;;;;;;6148412;22;92583;-96
2023/09/28 08:10:32;;;;;;;22.85;3.97;;;18.20;99.90;;;;;;6149065;22;93865;-96
2023/09/28 08:13:00;;;;;;;18.05;3.42;;;18.20;99.90;;;;;;6155654;22;92594;-96
2023/09/28 08:15:25;;;;;;;28.63;5.15;;;18.20;99.90;;;;;;6150112;22;92079;-96
2023/09/28 08:17:52;;;;;;;19.95;3.55;;;18.40;99.90;;;;;;6148292;22;92743;-96
2023/09/28 08:20:20;;;;;;;24.30;3.10;;;18.40;99.90;;;;;;6137017;22;94469;-96
2023/09/28 08:22:47;;;;;;;19.85;3.95;;;18.50;99.60;;;;;;6151010;22;94250;-96
2023/09/28 08:25:14;;;;;;;22.92;4.70;;;18.60;99.90;;;;;;6160912;22;92688;-96
2023/09/28 08:27:42;;;;;;;22.45;3.78;;;18.60;98.80;;;;;;6129505;22;93823;-96
2023/09/28 08:30:12;;;;;;;26.98;4.72;;;18.60;99.10;;;;;;6135282;22;94473;-96
2023/09/28 08:32:38;;;;;;;23.05;3.13;;;18.70;99.40;;;;;;6143268;22;93835;-96
2023/09/28 08:35:04;;;;;;;19.27;3.50;;;18.70;98.20;;;;;;6144280;22;92548;-96
2023/09/28 08:37:29;;;;;;;21.23;3.95;;;18.70;98.50;;;;;;6144855;22;92740;-95
2023/09/28 08:39:57;;;;;;;23.92;3.80;;;18.80;98.20;;;;;;6146674;22;93076;-95
2023/09/28 08:42:28;;;;;;;18.05;3.42;;;18.90;98.60;;;;;;6148021;22;95300;-96
2023/09/28 08:45:00;;;;;;;21.15;3.55;;;18.90;98.40;;;;;;6145661;22;91835;-96
2023/09/28 08:47:31;;;;;;;27.02;3.80;;;19.00;98.40;;;;;;6151118;22;92666;-94
2023/09/28 08:49:56;;;;;;;21.10;3.65;;;19.00;98.00;;;;;;6148278;22;93327;-96
2023/09/28 08:52:27;;;;;;;19.70;3.90;;;19.10;98.10;;;;;;6143198;22;94289;-96
2023/09/28 08:54:53;;;;;;;19.15;3.40;;;19.10;98.10;;;;;;6147411;22;92680;-96
2023/09/28 08:57:20;;;;;;;20.58;2.90;;;19.10;97.80;;;;;;6147169;22;92672;-94
2023/09/28 08:59:58;;;;;;;20.42;3.17;;;19.20;97.20;;;;;;6139532;22;93934;-95
2023/09/28 09:02:25;;;;;;;17.88;3.42;;;19.30;97.40;;;;;;6140267;22;95090;-92
2023/09/28 09:04:52;;;;;;;20.27;3.45;;;19.40;97.50;;;;;;6133238;22;92748;-93
2023/09/28 09:07:21;;;;;;;16.52;3.25;;;19.50;97.10;;;;;;6141951;22;93248;-93
2023/09/28 09:09:48;;;;;;;18.98;2.97;;;19.60;96.90;;;;;;6144853;22;97765;-93
2023/09/28 09:12:15;;;;;;;27.00;4.55;;;19.70;96.50;;;;;;6140647;22;93259;-93
2023/09/28 09:14:40;;;;;;;20.73;3.13;;;19.70;96.60;;;;;;6140094;22;93139;-92
2023/09/28 09:17:07;;;;;;;23.95;3.30;;;19.80;97.10;;;;;;6141849;22;93597;-91
2023/09/28 09:19:33;;;;;;;22.60;3.35;;;19.90;97.00;;;;;;6141223;22;95057;-93
2023/09/28 09:21:59;;;;;;;26.13;3.80;;;20.00;95.60;;;;;;6141480;22;94603;-94
2023/09/28 09:24:25;;;;;;;23.10;3.35;;;20.10;95.60;;;;;;6141594;22;92640;-92
2023/09/28 09:26:55;;;;;;;15.88;3.70;;;20.20;95.70;;;;;;6139426;22;92477;-91
2023/09/28 09:29:22;;;;;;;18.60;3.33;;;20.30;95.90;;;;;;6139640;22;93120;-90
2023/09/28 09:31:49;;;;;;;24.60;3.92;;;20.40;95.80;;;;;;6138962;22;94914;-89
2023/09/28 09:34:17;;;;;;;18.85;3.00;;;20.50;95.20;;;;;;6142609;22;91288;-88
2023/09/28 09:36:58;;;;;;;18.95;3.65;;;20.60;94.70;;;;;;6140939;22;92089;-90
2023/09/28 09:39:30;;;;;;;25.50;4.30;;;20.70;95.50;;;;;;6140595;22;93697;-91
2023/09/28 09:41:57;;;;;;;18.73;3.80;;;20.80;94.80;;;;;;6139708;22;95047;-90
2023/09/28 09:44:27;;;;;;;16.13;2.80;;;20.90;94.50;;;;;;6139364;22;92382;-90
2023/09/28 09:46:55;;;;;;;15.90;3.05;;;21.00;94.30;;;;;;6130786;22;93002;-91
2023/09/28 09:49:25;;;;;;;20.15;2.78;;;21.20;94.30;;;;;;6146511;22;95232;-93
2023/09/28 09:51:52;;;;;;;16.13;3.17;;;21.20;93.70;;;;;;6157144;22;94197;-91
2023/09/28 09:54:22;;;;;;;18.08;2.58;;;21.30;94.00;;;;;;6152085;22;92645;-96
2023/09/28 09:56:52;;;;;;;16.80;3.25;;;21.40;93.80;;;;;;6162727;22;92815;-92
2023/09/28 09:59:36;;;;;;;17.92;3.30;;;21.40;93.10;;;;;;6178760;22;92988;-94
2023/09/28 10:02:09;;;;;;;17.25;3.28;;;21.40;93.20;;;;;;6179777;22;92997;-92
2023/09/28 10:04:36;;;;;;;17.63;3.13;;;21.50;93.50;;;;;;6163099;22;91337;-92
2023/09/28 10:07:05;;;;;;;22.95;2.63;;;21.50;92.90;;;;;;6183103;22;92813;-94
2023/09/28 10:09:35;;;;;;;16.40;2.80;;;21.50;92.60;;;;;;6170180;22;92482;-92
2023/09/28 10:12:01;;;;;;;18.63;2.83;;;21.50;93.20;;;;;;6176586;22;94649;-90
2023/09/28 10:14:27;;;;;;;17.48;3.85;;;21.60;92.70;;;;;;6141866;22;92724;-90
2023/09/28 10:16:54;;;;;;;17.17;2.97;;;21.70;92.50;;;;;;6140633;22;92173;-89
2023/09/28 10:19:24;;;;;;;16.60;3.22;;;21.80;92.50;;;;;;6141036;22;95615;-91
2023/09/28 10:21:52;;;;;;;16.90;3.35;;;21.90;92.30;;;;;;6140926;22;94860;-91
2023/09/28 10:24:24;;;;;;;18.05;3.35;;;21.90;91.70;;;;;;6144527;22;91635;-91
2023/09/28 10:26:52;;;;;;;14.70;2.53;;;21.90;92.00;;;;;;6143398;22;92546;-93
2023/09/28 10:29:20;;;;;;;15.23;2.63;;;21.90;91.70;;;;;;6146711;22;92800;-95
2023/09/28 10:31:46;;;;;;;15.73;3.15;;;22.00;91.70;;;;;;6143793;22;95166;-96
2023/09/28 10:34:20;;;;;;;22.08;3.88;;;22.00;91.60;;;;;;6121167;22;93020;-96
2023/09/28 10:37:11;;;;;;;21.27;2.88;;;22.00;91.00;;;;;;6145702;22;92519;-96
2023/09/28 10:39:57;;;;;;;17.00;3.20;;;22.00;91.60;;;;;;6144176;22;93693;-96
2023/09/28 10:42:23;;;;;;;19.38;2.92;;;22.00;91.20;;;;;;6144447;22;97876;-95
2023/09/28 10:45:00;;;;;;;14.02;2.42;;;22.10;91.40;;;;;;6134405;22;92840;-95
2023/09/28 10:47:27;;;;;;;17.30;3.13;;;22.20;91.40;;;;;;6146024;22;92164;-95
2023/09/28 10:50:05;;;;;;;15.32;2.45;;;22.30;92.30;;;;;;6131989;22;93191;-96
2023/09/28 10:52:31;;;;;;;17.80;3.17;;;22.40;91.20;;;;;;6144823;22;92711;-94
2023/09/28 10:54:56;;;;;;;18.60;3.42;;;22.50;91.00;;;;;;6144575;22;92135;-95
2023/09/28 10:57:31;;;;;;;14.00;3.25;;;22.50;90.60;;;;;;6142349;22;93374;-95
2023/09/28 10:59:59;;;;;;;19.35;3.17;;;22.50;90.10;;;;;;6143327;22;94051;-95
2023/09/28 11:02:25;;;;;;;9.13;2.35;;;22.50;90.50;;;;;;6145389;22;95144;-95
2023/09/28 11:04:50;;;;;;;12.43;2.70;;;22.60;90.60;;;;;;6143001;22;94591;-95
2023/09/28 11:07:16;;;;;;;14.48;3.13;;;22.60;90.10;;;;;;6147216;22;92466;-95
2023/09/28 11:09:42;;;;;;;17.10;2.95;;;22.60;91.10;;;;;;6147261;22;94405;-94
2023/09/28 11:12:11;;;;;;;11.23;2.60;;;22.70;89.90;;;;;;6145616;22;94134;-94
2023/09/28 11:14:41;;;;;;;17.55;2.65;;;22.80;89.40;;;;;;6145061;22;91926;-94
2023/09/28 11:17:09;;;;;;;15.68;3.55;;;22.80;89.60;;;;;;6143375;22;92636;-94
2023/09/28 11:19:35;;;;;;;9.70;2.78;;;22.80;90.50;;;;;;6142542;22;92707;-94
2023/09/28 11:22:01;;;;;;;13.18;2.67;;;22.90;89.40;;;;;;6142238;22;93931;-95
2023/09/28 11:24:27;;;;;;;11.13;2.28;;;22.90;89.70;;;;;;6142641;22;92736;-95
2023/09/28 11:26:53;;;;;;;14.57;3.17;;;23.00;89.00;;;;;;6142263;22;92654;-93
2023/09/28 11:29:19;;;;;;;10.05;2.55;;;23.10;89.10;;;;;;6142470;22;94169;-95
2023/09/28 11:31:50;;;;;;;9.77;2.28;;;23.10;88.10;;;;;;6144226;22;92374;-95
2023/09/28 11:34:28;;;;;;;13.05;2.33;;;23.20;88.80;;;;;;6145144;22;92655;-95
2023/09/28 11:36:56;;;;;;;15.45;2.88;;;23.30;88.70;;;;;;6143223;22;93223;-96
2023/09/28 11:39:26;;;;;;;15.55;3.05;;;23.40;87.50;;;;;;6142115;22;94451;-96
2023/09/28 11:41:59;;;;;;;13.65;2.70;;;23.50;87.80;;;;;;6108488;22;93163;-95
2023/09/28 11:44:28;;;;;;;;;;;23.40;87.20;;;;;;6142602;22;92952;-96
2023/09/28 11:46:54;;;;;;;11.63;2.40;;;23.40;89.20;;;;;;6145535;22;93805;-94
2023/09/28 11:49:22;;;;;;;11.05;2.30;;;23.50;86.40;;;;;;6142705;22;95338;-95
2023/09/28 11:51:48;;;;;;;14.48;3.00;;;23.70;88.10;;;;;;6142570;22;94052;-96
2023/09/28 11:54:16;;;;;;;14.38;2.40;;;23.80;84.60;;;;;;6143856;22;92795;-94
2023/09/28 11:56:42;;;;;;;16.60;2.88;;;23.90;86.10;;;;;;6142576;22;92827;-95
2023/09/28 11:59:09;;;;;;;12.05;2.38;;;24.10;83.50;;;;;;6142573;22;95993;-94
2023/09/28 12:01:35;;;;;;;11.93;3.13;;;24.30;82.50;;;;;;6142398;22;94817;-94
2023/09/28 12:04:01;;;;;;;12.05;2.70;;;24.40;82.90;;;;;;6144195;22;92385;-94
2023/09/28 12:06:31;;;;;;;10.65;2.30;;;24.50;82.60;;;;;;6142525;22;92756;-95
2023/09/28 12:08:56;;;;;;;12.52;2.53;;;24.60;80.90;;;;;;6140084;22;94079;-95
2023/09/28 12:11:22;;;;;;;7.50;1.95;;;24.40;80.90;;;;;;6142075;22;95025;-96
2023/09/28 12:13:47;;;;;;;8.93;2.53;;;24.40;79.90;;;;;;6144300;22;92474;-94
2023/09/28 12:16:13;;;;;;;11.48;3.00;;;24.50;82.80;;;;;;6145086;22;92732;-96
2023/09/28 12:18:39;;;;;;;10.35;2.75;;;24.70;82.60;;;;;;6118154;22;95493;-94
2023/09/28 12:21:05;;;;;;;8.27;2.38;;;24.90;82.60;;;;;;6142446;22;95515;-95
2023/09/28 12:23:31;;;;;;;17.23;3.15;;;25.00;80.60;;;;;;6143960;22;93050;-95
2023/09/28 12:25:57;;;;;;;9.88;2.33;;;25.00;78.90;;;;;;6141321;22;92405;-94
2023/09/28 12:28:22;;;;;;;9.60;2.40;;;25.00;79.80;;;;;;6142313;22;94092;-95
2023/09/28 12:30:48;;;;;;;12.15;2.70;;;25.00;78.10;;;;;;6146156;22;94577;-94
2023/09/28 12:33:14;;;;;;;6.72;1.88;;;24.80;78.90;;;;;;6144603;22;92144;-94
2023/09/28 12:35:40;;;;;;;11.65;2.60;;;24.70;79.20;;;;;;6144255;22;93680;-94
2023/09/28 12:38:09;;;;;;;13.00;2.38;;;24.60;79.80;;;;;;6131138;22;94235;-94
2023/09/28 12:40:35;;;;;;;12.20;2.38;;;24.50;81.10;;;;;;6141273;22;95126;-95
2023/09/28 12:43:05;;;;;;;9.07;2.45;;;24.50;81.50;;;;;;6143272;22;92210;-95
2023/09/28 12:45:36;;;;;;;11.80;2.90;;;24.70;81.50;;;;;;6141440;22;92665;-95
2023/09/28 12:48:03;;;;;;;14.93;3.28;;;24.90;81.30;;;;;;6141673;22;94665;-94
2023/09/28 12:50:30;;;;;;;8.80;2.03;;;25.20;80.10;;;;;;6141526;22;94917;-94
2023/09/28 12:52:56;;;;;;;10.93;2.30;;;25.40;79.90;;;;;;6143559;22;92729;-94
2023/09/28 12:55:21;;;;;;;6.75;2.10;;;25.80;77.70;;;;;;6142199;22;92218;-94
2023/09/28 12:57:50;;;;;;;6.93;1.75;;;26.10;74.70;;;;;;6141768;22;95284;-94
2023/09/28 13:00:17;;;;;;;8.68;1.80;;;26.40;74.40;;;;;;6141252;22;95085;-95
2023/09/28 13:02:46;;;;;;;6.75;1.52;;;26.40;72.40;;;;;;6142664;22;93255;-95
2023/09/28 13:05:17;;;;;;;8.07;2.00;;;26.60;71.10;;;;;;6141553;22;92679;-95
2023/09/28 13:07:44;;;;;;;7.38;2.05;;;26.90;73.20;;;;;;6142253;22;94586;-95
2023/09/28 13:10:12;;;;;;;5.70;1.83;;;27.00;70.10;;;;;;6143737;22;95425;-96
2023/09/28 13:12:38;;;;;;;7.13;1.88;;;27.00;69.80;;;;;;6142006;22;93799;-95
2023/09/28 13:15:07;;;;;;;9.95;2.10;;;27.00;69.60;;;;;;6140513;22;92105;-95
2023/09/28 13:17:33;;;;;;;7.47;1.73;;;27.10;70.20;;;;;;6142630;22;93662;-94
2023/09/28 13:19:59;;;;;;;9.77;2.08;;;27.30;71.30;;;;;;6143332;22;93165;-94
2023/09/28 13:22:24;;;;;;;6.50;1.50;;;27.30;69.20;;;;;;6126963;22;93020;-94
2023/09/28 13:24:50;;;;;;;9.02;1.75;;;27.30;69.00;;;;;;6142563;22;93567;-95
2023/09/28 13:27:18;;;;;;;7.25;1.52;;;27.30;67.90;;;;;;6142098;22;95317;-95
2023/09/28 13:29:45;;;;;;;6.30;1.45;;;27.30;67.30;;;;;;6142110;22;94915;-95
2023/09/28 13:32:13;;;;;;;7.22;2.15;;;27.30;68.60;;;;;;6143039;22;92413;-95
2023/09/28 13:34:40;;;;;;;7.53;1.75;;;27.30;68.30;;;;;;6142578;22;92733;-95
2023/09/28 13:37:05;;;;;;;5.32;1.35;;;27.20;67.40;;;;;;6145561;22;94276;-91
2023/09/28 13:39:33;;;;;;;4.82;1.13;;;27.00;69.50;;;;;;6141790;22;93562;-89
2023/09/28 13:42:06;;;;;;;10.07;2.47;;;27.00;70.40;;;;;;6144212;22;91838;-89
2023/09/28 13:44:33;;;;;;;8.32;2.10;;;26.90;68.40;;;;;;6140496;22;92795;-89
2023/09/28 13:47:00;;;;;;;9.27;1.80;;;26.80;68.80;;;;;;6140435;22;93888;-89
2023/09/28 13:49:27;;;;;;;6.50;1.58;;;26.60;70.00;;;;;;6139987;22;94055;-89
2023/09/28 13:52:03;;;;;;;6.97;1.67;;;26.60;70.20;;;;;;6142070;22;92301;-89
2023/09/28 13:54:32;;;;;;;6.25;1.75;;;26.50;69.80;;;;;;6140519;22;92739;-90
2023/09/28 13:56:59;;;;;;;7.25;2.00;;;26.50;69.50;;;;;;6140654;22;94350;-89
2023/09/28 13:59:27;;;;;;;7.05;1.83;;;26.40;72.80;;;;;;6141159;22;93758;-88
2023/09/28 14:01:53;;;;;;;6.15;1.50;;;26.60;71.00;;;;;;6141438;22;100610;-89
2023/09/28 14:04:19;;;;;;;5.47;1.33;;;26.70;70.50;;;;;;6142281;22;92734;-89
2023/09/28 14:06:45;;;;;;;6.43;1.92;;;26.90;71.20;;;;;;6142379;22;94830;-90
2023/09/28 14:09:11;;;;;;;8.82;1.55;;;27.20;68.10;;;;;;6139885;22;93090;-90
2023/09/28 14:11:41;;;;;;;6.80;1.70;;;27.40;67.20;;;;;;6140566;22;92992;-89
2023/09/28 14:14:09;;;;;;;5.90;1.35;;;27.60;66.90;;;;;;6142322;22;93558;-89
2023/09/28 14:16:37;;;;;;;4.13;1.45;;;27.70;66.20;;;;;;6146760;22;94182;-89
2023/09/28 14:19:08;;;;;;;5.65;1.70;;;27.80;66.60;;;;;;6148932;22;95375;-89
2023/09/28 14:21:35;;;;;;;3.47;1.83;;;27.90;68.10;;;;;;6135668;22;92763;-89
2023/09/28 14:24:05;;;;;;;4.03;1.45;;;27.90;65.10;;;;;;6147776;22;92592;-88
2023/09/28 14:26:35;;;;;;;7.38;1.70;;;27.90;65.80;;;;;;6146943;22;94261;-89
2023/09/28 14:29:03;;;;;;;3.97;1.30;;;28.00;67.30;;;;;;6149030;22;95136;-93
2023/09/28 14:31:29;;;;;;;4.75;1.30;;;28.00;67.60;;;;;;6149850;22;92018;-90
2023/09/28 14:33:55;;;;;;;7.72;1.60;;;27.90;66.00;;;;;;6150075;22;92512;-90
2023/09/28 14:36:22;;;;;;;4.50;1.42;;;27.80;64.70;;;;;;6149215;22;94314;-92
2023/09/28 14:38:50;;;;;;;6.53;1.65;;;27.70;65.80;;;;;;6147347;22;94971;-90
2023/09/28 14:41:17;;;;;;;4.88;1.63;;;27.60;66.80;;;;;;6148491;22;92223;-94
2023/09/28 14:43:44;;;;;;;10.02;1.90;;;27.60;66.10;;;;;;6147900;22;92099;-90
2023/09/28 14:46:09;;;;;;;7.90;1.50;;;27.40;68.20;;;;;;6149170;22;93628;-90
2023/09/28 14:48:37;;;;;;;5.00;1.67;;;27.40;67.70;;;;;;6149541;22;93731;-94
2023/09/28 14:51:02;;;;;;;9.40;2.33;;;27.30;66.30;;;;;;6148750;22;92634;-89
2023/09/28 14:53:28;;;;;;;6.88;1.52;;;27.20;66.70;;;;;;6146850;22;92623;-90
2023/09/28 14:55:54;;;;;;;4.30;1.80;;;27.20;67.70;;;;;;6147868;22;94485;-90
2023/09/28 14:58:19;;;;;;;6.47;1.50;;;27.20;68.90;;;;;;6148139;22;94385;-89
2023/09/28 15:00:45;;;;;;;5.70;1.55;;;27.20;68.00;;;;;;6148724;22;92831;-90
2023/09/28 15:03:11;;;;;;;8.98;2.42;;;27.10;68.40;;;;;;6148211;22;93647;-91
2023/09/28 15:05:37;;;;;;;8.93;1.40;;;26.90;68.70;;;;;;6149369;22;95338;-91
2023/09/28 15:08:03;;;;;;;7.70;1.95;;;26.80;69.50;;;;;;6148292;22;94138;-88
2023/09/28 15:10:29;;;;;;;5.40;1.80;;;26.70;70.20;;;;;;6137568;22;92693;-90
2023/09/28 15:12:56;;;;;;;4.60;1.65;;;26.60;69.80;;;;;;6148285;22;92570;-88
2023/09/28 15:15:22;;;;;;;7.72;1.80;;;26.60;70.20;;;;;;6147854;22;94203;-91
2023/09/28 15:17:48;;;;;;;5.45;1.48;;;26.70;70.70;;;;;;6146166;22;93944;-90
2023/09/28 15:20:14;;;;;;;7.97;2.05;;;26.80;71.90;;;;;;6148174;22;92053;-90
2023/09/28 15:22:40;;;;;;;6.60;1.77;;;26.80;70.60;;;;;;6149249;22;92463;-90
2023/09/28 15:25:08;;;;;;;9.32;2.10;;;26.70;70.30;;;;;;6150747;22;95272;-91
2023/09/28 15:27:40;;;;;;;5.53;1.42;;;26.60;71.50;;;;;;6147528;22;95051;-89
2023/09/28 15:30:14;;;;;;;10.13;2.08;;;26.50;71.40;;;;;;6145993;22;92844;-92
2023/09/28 15:32:40;;;;;;;6.45;1.55;;;26.50;71.90;;;;;;6123385;22;92350;-94
2023/09/28 15:35:10;;;;;;;6.22;1.73;;;26.50;74.40;;;;;;6149501;22;95385;-93
2023/09/28 15:37:36;;;;;;;5.55;1.52;;;26.60;76.00;;;;;;6147884;22;94275;-91
2023/09/28 15:40:03;;;;;;;4.38;1.52;;;26.70;77.40;;;;;;6149479;22;92856;-91
2023/09/28 15:42:33;;;;;;;7.35;2.10;;;26.80;76.30;;;;;;6148381;22;92881;-92
2023/09/28 15:44:59;;;;;;;6.68;1.90;;;26.90;72.20;;;;;;6149782;22;94035;-93
2023/09/28 15:47:53;;;;;;;4.47;1.42;;;26.90;71.90;;;;;;6152528;22;94325;-92
2023/09/28 15:50:40;;;;;;;4.55;1.85;;;27.00;72.50;;;;;;6163427;22;91365;-94
2023/09/28 15:53:24;;;;;;;6.03;1.65;;;27.00;70.90;;;;;;6178454;22;93409;-95
2023/09/28 15:56:08;;;;;;;5.60;1.50;;;27.10;70.80;;;;;;6147263;22;94059;-96
2023/09/28 15:58:41;;;;;;;4.47;1.67;;;27.10;71.00;;;;;;6192280;22;94156;-96
2023/09/28 16:01:18;;;;;;;15.40;2.20;;;27.10;75.40;;;;;;6177740;22;92617;-96
2023/09/28 16:03:53;;;;;;;4.95;1.48;;;27.10;70.90;;;;;;6173953;22;92390;-96
2023/09/28 16:06:21;;;;;;;7.00;1.90;;;27.20;73.10;;;;;;6162826;22;92399;-95
2023/09/28 16:08:49;;;;;;;6.30;1.90;;;27.20;70.10;;;;;;6139235;22;94584;-96
2023/09/28 16:11:23;;;;;;;5.72;1.48;;;27.20;68.60;;;;;;6167465;22;91339;-95
2023/09/28 16:13:48;;;;;;;3.83;1.40;;;27.20;69.90;;;;;;6163434;22;91940;-95
2023/09/28 16:16:14;;;;;;;8.23;2.33;;;27.20;72.50;;;;;;6163185;22;92889;-96
2023/09/28 16:18:40;;;;;;;8.70;2.00;;;27.20;74.70;;;;;;6162011;22;94157;-95
2023/09/28 16:21:06;;;;;;;6.30;1.80;;;27.10;72.30;;;;;;6161237;22;91763;-95
2023/09/28 16:23:31;;;;;;;8.00;1.85;;;27.00;71.80;;;;;;6162574;22;91711;-95
2023/09/28 16:25:57;;;;;;;3.63;1.63;;;26.90;71.60;;;;;;6162336;22;95755;-95
2023/09/28 16:28:23;;;;;;;5.15;1.80;;;26.80;72.80;;;;;;6163206;22;94080;-95
2023/09/28 16:31:06;;;;;;;5.63;1.85;;;26.60;74.30;;;;;;6164352;22;92185;-96
2023/09/28 16:33:32;;;;;;;5.63;1.67;;;26.50;76.60;;;;;;6161168;22;91517;-96
2023/09/28 16:35:59;;;;;;;15.02;2.85;;;26.40;77.40;;;;;;6161953;22;91254;-96
2023/09/28 16:38:26;;;;;;;26.48;4.07;;;26.30;77.90;;;;;;6160660;22;92102;-96
2023/09/28 16:40:52;;;;;;;21.08;2.78;;;26.20;78.60;;;;;;6156427;22;92482;-95
2023/09/28 16:43:18;;;;;;;11.27;2.28;;;26.10;78.70;;;;;;6170192;22;92752;-96
2023/09/28 16:45:48;;;;;;;5.53;1.70;;;25.90;78.80;;;;;;6174062;22;93108;-96
2023/09/28 16:48:19;;;;;;;6.68;2.30;;;25.70;77.20;;;;;;6162666;22;92768;-96
2023/09/28 16:50:46;;;;;;;7.18;1.92;;;25.50;77.80;;;;;;6160349;22;92647;-95
2023/09/28 16:53:15;;;;;;;3.88;1.67;;;25.20;79.10;;;;;;6155218;22;92310;-96
2023/09/28 16:55:41;;;;;;;5.20;1.65;;;25.10;81.10;;;;;;6157786;22;94326;-96
2023/09/28 16:58:21;;;;;;;6.35;1.85;;;25.00;82.40;;;;;;6174593;22;94052;-96
2023/09/28 17:00:47;;;;;;;7.03;1.70;;;24.80;83.10;;;;;;6175372;22;91162;-95
2023/09/28 17:03:14;;;;;;;7.13;1.60;;;24.70;84.20;;;;;;6136368;22;92017;-96
2023/09/28 17:05:41;;;;;;;7.32;2.00;;;24.50;83.90;;;;;;6160189;22;94383;-95
2023/09/28 17:08:07;;;;;;;4.95;1.88;;;24.40;84.10;;;;;;6149770;22;94188;-96
2023/09/28 17:10:33;;;;;;;6.10;1.88;;;24.20;84.50;;;;;;6160949;22;92256;-96
2023/09/28 17:12:59;;;;;;;5.97;2.10;;;23.90;85.60;;;;;;6162267;22;92587;-96
2023/09/28 17:16:18;;;;;;;8.43;1.98;;;23.80;86.10;;;;;;6170019;22;93648;-96
2023/09/28 17:18:47;;;;;;;6.70;1.90;;;23.50;87.30;;;;;;6174412;22;92785;-96
2023/09/28 17:21:15;;;;;;;7.88;2.35;;;23.30;88.30;;;;;;6176050;22;91348;-96
2023/09/28 17:23:44;;;;;;;9.88;1.95;;;23.20;89.10;;;;;;6173102;22;91506;-96
2023/09/28 17:26:10;;;;;;;12.05;2.50;;;23.00;89.90;;;;;;6175317;22;92915;-96
2023/09/28 17:28:39;;;;;;;13.45;2.10;;;22.90;90.40;;;;;;6142377;22;91922;-96
2023/09/28 17:31:47;;;;;;;4.10;1.95;;;22.80;90.70;;;;;;6183351;22;91154;-96
2023/09/28 17:34:21;;;;;;;6.53;2.20;;;22.70;90.90;;;;;;6151273;22;92986;-79
2023/09/28 17:36:51;;;;;;;7.95;2.45;;;22.50;91.20;;;;;;6144312;22;93174;-77
2023/09/28 17:39:18;;;;;;;6.47;2.25;;;22.40;91.60;;;;;;6167487;22;95234;-78
2023/09/28 17:41:43;;;;;;;5.60;2.30;;;22.30;91.90;;;;;;6144582;22;92769;-77
2023/09/28 17:44:09;;;;;;;10.18;2.47;;;22.10;92.20;;;;;;6144247;22;92582;-77
2023/09/28 17:46:35;;;;;;;5.45;2.08;;;22.00;92.50;;;;;;6142516;22;93792;-79
2023/09/28 17:49:01;;;;;;;5.85;2.20;;;21.80;92.70;;;;;;6144417;22;93237;-77
2023/09/28 17:51:31;;;;;;;5.18;1.88;;;21.70;93.00;;;;;;6167428;22;91384;-79
2023/09/28 17:53:58;;;;;;;5.43;2.38;;;21.60;93.20;;;;;;6132348;22;93258;-75
2023/09/28 17:56:23;;;;;;;7.32;2.30;;;21.40;93.60;;;;;;6136545;22;93610;-75
2023/09/28 17:58:51;;;;;;;5.95;2.42;;;21.30;93.80;;;;;;6160000;22;95165;-75
2023/09/28 18:01:17;;;;;;;19.45;2.92;;;21.10;93.90;;;;;;6137071;22;92519;-76
2023/09/28 18:03:43;;;;;;;8.45;2.70;;;21.00;94.30;;;;;;6135946;22;93068;-74
2023/09/28 18:06:08;;;;;;;8.93;2.65;;;20.90;94.50;;;;;;6132147;22;94889;-75
2023/09/28 18:08:36;;;;;;;10.45;2.75;;;20.80;94.60;;;;;;6137549;22;92602;-74
2023/09/28 18:11:03;;;;;;;11.98;2.78;;;20.60;95.00;;;;;;6163321;22;92129;-75
2023/09/28 18:13:29;;;;;;;7.38;2.67;;;20.50;95.30;;;;;;6162811;22;92990;-75
2023/09/28 18:15:54;;;;;;;7.57;2.20;;;20.30;95.50;;;;;;6163328;22;95724;-74
2023/09/28 18:18:20;;;;;;;6.78;2.78;;;20.20;95.80;;;;;;6136756;22;94515;-78
2023/09/28 18:20:46;;;;;;;12.98;3.15;;;20.10;96.00;;;;;;6139600;22;92895;-74
2023/09/28 18:23:12;;;;;;;8.88;3.05;;;20.00;96.30;;;;;;6136340;22;93523;-74
2023/09/28 18:25:37;;;;;;;8.80;2.40;;;19.90;96.40;;;;;;6137428;22;93661;-74
2023/09/28 18:28:04;;;;;;;8.45;2.65;;;19.80;96.70;;;;;;6137593;22;95997;-75
2023/09/28 18:30:31;;;;;;;8.32;3.00;;;19.60;96.80;;;;;;6139489;22;92343;-75
2023/09/28 18:32:57;;;;;;;8.13;2.88;;;19.50;97.40;;;;;;6136992;22;92865;-75
2023/09/28 18:35:23;;;;;;;8.95;2.70;;;19.40;97.60;;;;;;6138711;22;92744;-75
2023/09/28 18:37:49;;;;;;;7.05;2.65;;;19.30;97.70;;;;;;6136962;22;93035;-74
2023/09/28 18:40:15;;;;;;;11.70;2.88;;;19.10;97.80;;;;;;6139364;22;91767;-75
2023/09/28 18:42:41;;;;;;;7.72;2.88;;;19.10;98.10;;;;;;6137315;22;93108;-75
2023/09/28 18:45:07;;;;;;;8.45;2.60;;;19.00;98.50;;;;;;6161578;22;96482;-75
2023/09/28 18:47:34;;;;;;;7.63;2.80;;;18.90;98.50;;;;;;6137927;22;93684;-74
2023/09/28 18:49:59;;;;;;;6.75;2.47;;;18.80;98.70;;;;;;6126549;22;92766;-75
2023/09/28 18:52:25;;;;;;;7.50;2.75;;;18.80;99.20;;;;;;6137695;22;92870;-75
2023/09/28 18:54:51;;;;;;;9.77;2.75;;;18.70;99.20;;;;;;6138564;22;93972;-75
2023/09/28 18:57:20;;;;;;;10.93;3.20;;;18.60;99.40;;;;;;6138498;22;94303;-75
2023/09/28 18:59:46;;;;;;;7.28;2.90;;;18.50;99.70;;;;;;6139394;22;92564;-74
2023/09/28 19:02:11;;;;;;;6.95;2.83;;;18.40;99.90;;;;;;6137471;22;92603;-75
2023/09/28 19:04:39;;;;;;;15.50;3.50;;;18.30;99.90;;;;;;6138232;22;91994;-75
2023/09/28 19:07:04;;;;;;;10.75;3.05;;;18.30;99.90;;;;;;6137056;22;93006;-74
2023/09/28 19:09:31;;;;;;;8.15;3.25;;;18.30;99.90;;;;;;6136780;22;93125;-76
2023/09/28 19:11:56;;;;;;;9.05;2.95;;;18.20;99.90;;;;;;6138016;22;93560;-75
2023/09/28 19:14:22;;;;;;;9.00;3.33;;;18.10;99.90;;;;;;6127910;22;96064;-75
2023/09/28 19:16:49;;;;;;;8.30;3.08;;;18.10;99.90;;;;;;6161676;22;94639;-75
2023/09/28 19:19:16;;;;;;;16.55;3.92;;;18.00;99.90;;;;;;6138326;22;92922;-75
2023/09/28 19:21:42;;;;;;;10.65;3.10;;;17.90;99.90;;;;;;6139218;22;92803;-75
2023/09/28 19:24:08;;;;;;;11.93;3.20;;;17.90;99.90;;;;;;6136103;22;96253;-75
2023/09/28 19:26:33;;;;;;;11.55;3.05;;;17.70;99.90;;;;;;6161563;22;96200;-75
2023/09/28 19:29:03;;;;;;;7.57;2.90;;;17.70;99.90;;;;;;6162657;22;92036;-75
2023/09/28 19:31:32;;;;;;;12.30;3.40;;;17.60;99.90;;;;;;6162229;22;92498;-75
2023/09/28 19:33:58;;;;;;;9.07;3.20;;;17.60;99.90;;;;;;6137748;22;96971;-75
2023/09/28 19:36:24;;;;;;;9.73;3.05;;;17.50;99.90;;;;;;6137664;22;93722;-75
2023/09/28 19:38:50;;;;;;;8.90;3.50;;;17.40;99.90;;;;;;6137027;22;93048;-75
2023/09/28 19:41:26;;;;;;;7.63;2.95;;;17.40;99.90;;;;;;6136779;22;92863;-75
2023/09/28 19:43:53;;;;;;;8.35;3.20;;;17.30;99.90;;;;;;6137731;22;93994;-75